Terminal Aerodrome Forecast
Issued by NWS

Home | Current Version | Previous Version | Text Only | Print | Product List | Glossary On
Versions: 1 2 3 4 5 6 7 8 9 10 11 12 13 14 15 16 17 18
000
FTAK31 PANC 230531
TAFADL
TAF
PADL 230531Z 2306/2406 10008KT P6SM BKN060
      TEMPO 2306/2308 10010G18KT
     FM231200 04007KT P6SM SCT060 SCT100
      AMD LTD TO CLD VIS AND WIND 2307/2316=

USA.gov is the U.S. government's official web portal to all federal, state and local government web resources and services.